createdAt,value
2023-01-06T00:00:35.625Z,5.73
2023-01-06T00:03:02.890Z,5.68
2023-01-06T00:05:29.764Z,5.51
2023-01-06T00:07:56.666Z,5.62
2023-01-06T00:10:23.841Z,5.63
2023-01-06T00:12:51.071Z,5.40
2023-01-06T00:15:18.674Z,5.27
2023-01-06T00:17:46.049Z,5.32
2023-01-06T00:20:13.429Z,5.42
2023-01-06T00:22:40.823Z,5.47
2023-01-06T00:25:10.233Z,5.46
2023-01-06T00:27:37.668Z,5.35
2023-01-06T00:30:05.652Z,5.25
2023-01-06T00:32:32.560Z,5.09
2023-01-06T00:34:59.231Z,5.05
2023-01-06T00:37:25.830Z,4.97
2023-01-06T00:39:52.465Z,4.83
2023-01-06T00:42:19.217Z,4.83
2023-01-06T00:44:45.846Z,4.75
2023-01-06T00:47:12.695Z,4.79
2023-01-06T00:49:39.731Z,4.74
2023-01-06T00:52:06.486Z,4.74
2023-01-06T00:54:33.178Z,4.79
2023-01-06T00:56:59.786Z,4.80
2023-01-06T00:59:26.905Z,4.70
2023-01-06T01:01:55.999Z,4.74
2023-01-06T01:04:24.108Z,4.92
2023-01-06T01:06:53.016Z,5.10
2023-01-06T01:09:24.118Z,5.29
2023-01-06T01:12:06.934Z,5.43
2023-01-06T01:14:33.836Z,5.56
2023-01-06T01:17:00.763Z,5.66
2023-01-06T01:19:28.348Z,5.69
2023-01-06T01:21:54.980Z,5.80
2023-01-06T01:24:21.944Z,5.86
2023-01-06T01:26:48.627Z,6.00
2023-01-06T01:29:17.018Z,6.01
2023-01-06T01:31:44.506Z,5.97
2023-01-06T01:34:12.937Z,5.99
2023-01-06T01:36:42.287Z,5.96
2023-01-06T01:39:10.587Z,5.98
2023-01-06T01:41:37.235Z,5.93
2023-01-06T01:44:34.408Z,5.82
2023-01-06T01:47:01.039Z,5.77
2023-01-06T01:49:32.401Z,5.68
2023-01-06T01:52:02.787Z,5.64
2023-01-06T01:54:36.074Z,5.58
2023-01-06T01:57:08.609Z,5.57
2023-01-06T01:59:37.551Z,5.56
2023-01-06T02:02:04.745Z,5.54
2023-01-06T02:04:34.553Z,5.59
2023-01-06T02:07:02.491Z,5.47
2023-01-06T02:09:39.334Z,5.48
2023-01-06T02:12:06.282Z,5.46
2023-01-06T02:14:32.869Z,5.45
2023-01-06T02:17:05.651Z,5.50
2023-01-06T02:19:48.591Z,5.45
2023-01-06T02:22:46.106Z,5.50
2023-01-06T02:25:43.521Z,5.54
2023-01-06T02:28:22.188Z,5.56
2023-01-06T02:31:08.638Z,5.50
2023-01-06T02:33:47.022Z,5.52
2023-01-06T02:36:33.466Z,5.51
2023-01-06T02:39:05.399Z,5.52
2023-01-06T02:41:41.666Z,5.51
2023-01-06T02:44:20.103Z,5.49
2023-01-06T02:47:10.443Z,5.43
2023-01-06T02:49:38.035Z,5.37
2023-01-06T02:52:16.751Z,5.26
2023-01-06T02:54:50.027Z,5.26
2023-01-06T02:57:44.079Z,5.27
2023-01-06T03:00:16.638Z,5.29
2023-01-06T03:02:49.386Z,5.33
2023-01-06T03:05:17.508Z,5.34
2023-01-06T03:07:46.580Z,5.35
2023-01-06T03:10:16.780Z,5.33
2023-01-06T03:12:51.271Z,5.34
2023-01-06T03:15:17.992Z,5.31
2023-01-06T03:17:45.115Z,5.31
2023-01-06T03:20:13.572Z,5.33
2023-01-06T03:22:41.459Z,5.27
2023-01-06T03:25:09.317Z,5.25
2023-01-06T03:27:36.004Z,5.27
2023-01-06T03:30:09.628Z,5.26
2023-01-06T03:32:37.522Z,5.26
2023-01-06T03:35:20.424Z,5.26
2023-01-06T03:38:02.301Z,5.23
2023-01-06T03:40:42.207Z,5.22
2023-01-06T03:43:40.176Z,5.25
2023-01-06T03:46:27.763Z,5.23
2023-01-06T03:49:01.661Z,5.18
2023-01-06T03:51:39.616Z,5.24
2023-01-06T03:54:10.869Z,5.22
2023-01-06T03:57:04.720Z,5.24
2023-01-06T03:59:34.994Z,5.19
2023-01-06T04:02:02.871Z,5.17
2023-01-06T04:04:29.463Z,5.15
2023-01-06T04:06:56.108Z,5.21
2023-01-06T04:09:22.802Z,5.20
2023-01-06T04:12:04.773Z,5.19
2023-01-06T04:14:31.377Z,5.23
2023-01-06T04:16:57.951Z,5.16
2023-01-06T04:19:24.531Z,5.13
2023-01-06T04:21:51.103Z,5.13
2023-01-06T04:24:17.702Z,5.16
2023-01-06T04:26:44.309Z,5.22
2023-01-06T04:29:10.860Z,5.22
2023-01-06T04:31:37.445Z,5.22
2023-01-06T04:34:04.029Z,5.22
2023-01-06T04:36:31.582Z,5.23
2023-01-06T04:38:58.143Z,5.20
2023-01-06T04:41:24.930Z,5.17
2023-01-06T04:43:51.505Z,5.14
2023-01-06T04:46:18.058Z,5.17
2023-01-06T04:48:44.675Z,5.20
2023-01-06T04:51:11.765Z,5.15
2023-01-06T04:53:40.543Z,5.12
2023-01-06T04:56:09.732Z,5.16
2023-01-06T04:58:37.109Z,5.18
2023-01-06T05:01:06.577Z,5.24
2023-01-06T05:03:33.365Z,5.26
2023-01-06T05:06:02.696Z,5.25
2023-01-06T05:08:30.657Z,5.23
2023-01-06T05:11:14.218Z,5.20
2023-01-06T05:13:41.147Z,5.19
2023-01-06T05:16:09.719Z,5.17
2023-01-06T05:18:37.097Z,5.23
2023-01-06T05:21:03.773Z,5.24
2023-01-06T05:23:30.359Z,5.26
2023-01-06T05:25:56.999Z,5.21
2023-01-06T05:28:23.684Z,5.19
2023-01-06T05:30:50.297Z,5.20
2023-01-06T05:33:16.879Z,5.17
2023-01-06T05:35:43.478Z,5.20
2023-01-06T05:38:10.102Z,5.21
2023-01-06T05:40:36.691Z,5.25
2023-01-06T05:43:03.261Z,5.18
2023-01-06T05:45:29.966Z,5.20
2023-01-06T05:47:58.069Z,5.17
2023-01-06T05:50:24.689Z,5.16
2023-01-06T05:52:54.510Z,5.20
2023-01-06T05:55:24.328Z,5.16
2023-01-06T05:57:50.904Z,5.17
2023-01-06T06:00:17.676Z,5.14
2023-01-06T06:02:44.265Z,5.12
2023-01-06T06:05:10.869Z,5.10
2023-01-06T06:07:37.880Z,5.11
2023-01-06T06:10:05.424Z,5.17
2023-01-06T06:12:32.047Z,5.18
2023-01-06T06:14:58.651Z,5.16
2023-01-06T06:17:25.398Z,5.18
2023-01-06T06:19:52.011Z,5.20
2023-01-06T06:22:19.069Z,5.21
2023-01-06T06:24:45.706Z,5.18
2023-01-06T06:27:12.357Z,5.23
2023-01-06T06:29:38.972Z,5.20
2023-01-06T06:32:05.537Z,5.23
2023-01-06T06:34:32.206Z,5.26
2023-01-06T06:36:58.768Z,5.27
2023-01-06T06:39:25.431Z,5.28
2023-01-06T06:41:52.039Z,5.30
2023-01-06T06:44:18.652Z,5.31
2023-01-06T06:46:45.227Z,5.31
2023-01-06T06:49:11.876Z,5.34
2023-01-06T06:51:38.472Z,5.36
2023-01-06T06:54:05.152Z,5.34
2023-01-06T06:56:31.805Z,5.34
2023-01-06T06:58:58.457Z,5.35
2023-01-06T07:01:25.195Z,5.38
2023-01-06T07:03:51.905Z,5.40
2023-01-06T07:06:22.785Z,5.42
2023-01-06T07:08:49.857Z,5.44
2023-01-06T07:11:16.889Z,5.40
2023-01-06T07:13:43.731Z,5.44
2023-01-06T07:16:12.138Z,5.44
2023-01-06T07:18:39.278Z,5.39
2023-01-06T07:21:06.172Z,5.44
2023-01-06T07:23:33.194Z,5.44
2023-01-06T07:26:01.333Z,5.48
2023-01-06T07:28:29.536Z,5.49
2023-01-06T07:30:56.284Z,5.51
2023-01-06T07:33:24.490Z,5.51
2023-01-06T07:35:53.998Z,5.54
2023-01-06T07:38:21.042Z,5.57
2023-01-06T07:40:48.021Z,5.54
2023-01-06T07:43:14.859Z,5.57
2023-01-06T07:45:41.459Z,5.57
2023-01-06T07:48:09.506Z,5.59
2023-01-06T07:50:36.075Z,5.60
2023-01-06T07:53:03.336Z,5.63
2023-01-06T07:55:31.489Z,5.64
2023-01-06T07:57:58.904Z,5.67
2023-01-06T08:00:26.127Z,5.68
2023-01-06T08:02:53.031Z,5.72
2023-01-06T08:05:19.778Z,5.72
2023-01-06T08:07:46.344Z,5.76
2023-01-06T08:10:12.900Z,5.78
2023-01-06T08:12:39.606Z,5.81
2023-01-06T08:15:06.748Z,5.84
2023-01-06T08:17:33.358Z,5.87
2023-01-06T08:19:59.991Z,5.90
2023-01-06T08:22:26.650Z,5.93
2023-01-06T08:24:53.350Z,5.95
2023-01-06T08:27:20.749Z,5.97
2023-01-06T08:29:50.108Z,6.00
2023-01-06T08:32:17.136Z,6.05
2023-01-06T08:34:43.753Z,6.08
2023-01-06T08:37:10.409Z,6.12
2023-01-06T08:39:36.985Z,6.16
2023-01-06T08:42:03.787Z,6.22
2023-01-06T08:44:30.407Z,6.28
2023-01-06T08:46:57.188Z,6.40
2023-01-06T08:49:23.784Z,6.47
2023-01-06T08:51:50.374Z,6.52
2023-01-06T08:54:17.089Z,6.59
2023-01-06T08:56:44.726Z,6.67
2023-01-06T08:59:15.050Z,6.76
2023-01-06T09:01:42.475Z,6.86
2023-01-06T09:04:10.737Z,6.96
2023-01-06T09:06:38.448Z,7.06
2023-01-06T09:09:07.455Z,7.13
2023-01-06T09:11:34.306Z,7.16
2023-01-06T09:14:01.143Z,7.26
2023-01-06T09:16:27.782Z,7.37
2023-01-06T09:18:54.390Z,7.41
2023-01-06T09:21:23.158Z,7.56
2023-01-06T09:23:50.401Z,7.69
2023-01-06T09:26:18.430Z,7.91
2023-01-06T09:28:45.176Z,8.11
2023-01-06T09:31:12.273Z,8.33
2023-01-06T09:33:39.989Z,8.51
2023-01-06T09:36:07.650Z,8.73
2023-01-06T09:38:34.304Z,8.86
2023-01-06T09:41:31.427Z,8.90
2023-01-06T09:44:10.884Z,8.93
2023-01-06T09:46:40.639Z,9.09
2023-01-06T09:49:19.410Z,9.33
2023-01-06T09:51:46.097Z,9.46
2023-01-06T09:54:16.907Z,9.67
2023-01-06T09:56:53.621Z,9.75
2023-01-06T09:59:27.536Z,9.99
2023-01-06T10:01:55.826Z,10.11
2023-01-06T10:04:27.223Z,10.25
2023-01-06T10:07:20.011Z,10.33
2023-01-06T10:10:10.612Z,10.37
2023-01-06T10:13:03.729Z,10.41
2023-01-06T10:15:48.967Z,10.59
2023-01-06T10:18:26.162Z,10.76
2023-01-06T10:21:16.586Z,10.94
2023-01-06T10:24:11.781Z,11.19
2023-01-06T10:26:43.274Z,11.20
2023-01-06T10:29:18.484Z,11.42
2023-01-06T10:31:47.756Z,11.57
2023-01-06T10:34:21.554Z,11.69
2023-01-06T10:36:57.091Z,11.88
2023-01-06T10:39:27.380Z,11.95
2023-01-06T10:42:39.786Z,12.09
2023-01-06T10:45:11.124Z,12.24
2023-01-06T10:47:37.940Z,12.39
2023-01-06T10:50:05.361Z,12.59
2023-01-06T10:52:33.070Z,12.61
2023-01-06T10:55:04.746Z,12.65
2023-01-06T10:57:36.312Z,12.65
2023-01-06T11:00:12.695Z,12.50
2023-01-06T11:02:46.805Z,12.52
2023-01-06T11:05:16.307Z,12.56
2023-01-06T11:07:51.811Z,12.64
2023-01-06T11:10:27.412Z,12.39
2023-01-06T11:12:57.016Z,12.51
2023-01-06T11:15:29.411Z,12.60
2023-01-06T11:17:56.136Z,12.62
2023-01-06T11:20:22.672Z,12.58
2023-01-06T11:22:49.562Z,12.35
2023-01-06T11:25:30.392Z,12.39
2023-01-06T11:28:12.344Z,12.26
2023-01-06T11:30:52.835Z,12.32
2023-01-06T11:33:22.329Z,12.64
2023-01-06T11:35:50.022Z,12.58
2023-01-06T11:38:19.155Z,12.51
2023-01-06T11:40:48.959Z,12.35
2023-01-06T11:43:19.935Z,12.27
2023-01-06T11:45:53.674Z,11.93
2023-01-06T11:48:20.263Z,11.79
2023-01-06T11:50:57.062Z,11.88
2023-01-06T11:53:25.193Z,11.74
2023-01-06T11:55:57.934Z,11.75
2023-01-06T11:58:36.312Z,11.67
2023-01-06T12:01:38.041Z,11.50
2023-01-06T12:04:12.995Z,11.67
2023-01-06T12:06:42.996Z,11.62
2023-01-06T12:09:28.897Z,11.67
2023-01-06T12:11:59.393Z,11.72
2023-01-06T12:14:31.389Z,11.76
2023-01-06T12:17:04.712Z,11.75
2023-01-06T12:19:46.019Z,11.60
2023-01-06T12:22:23.967Z,11.65
2023-01-06T12:24:52.416Z,11.51
2023-01-06T12:27:30.223Z,11.43
2023-01-06T12:30:01.144Z,11.40
2023-01-06T12:32:36.433Z,11.41
2023-01-06T12:35:05.757Z,11.46
2023-01-06T12:37:33.317Z,11.40
2023-01-06T12:40:21.699Z,11.39
2023-01-06T12:43:18.842Z,11.37
2023-01-06T12:45:57.593Z,11.35
2023-01-06T12:48:25.590Z,11.30
2023-01-06T12:50:57.973Z,11.39
2023-01-06T12:53:28.723Z,11.33
2023-01-06T12:55:56.308Z,11.39
2023-01-06T12:58:31.179Z,11.49
2023-01-06T13:01:09.294Z,11.30
2023-01-06T13:03:35.953Z,11.30
2023-01-06T13:06:32.197Z,11.26
2023-01-06T13:09:15.008Z,11.34
2023-01-06T13:12:03.850Z,11.32
2023-01-06T13:14:59.577Z,11.31
2023-01-06T13:17:44.545Z,11.29
2023-01-06T13:20:31.919Z,11.27
2023-01-06T13:23:10.223Z,11.32
2023-01-06T13:26:04.256Z,11.28
2023-01-06T13:29:05.107Z,11.26
2023-01-06T13:31:48.126Z,11.35
2023-01-06T13:34:39.480Z,11.28
2023-01-06T13:37:34.794Z,11.43
2023-01-06T13:40:18.833Z,11.54
2023-01-06T13:42:53.565Z,11.61
2023-01-06T13:45:32.556Z,11.87
2023-01-06T13:48:00.966Z,12.07
2023-01-06T13:50:28.811Z,12.17
2023-01-06T13:52:56.205Z,12.50
2023-01-06T13:55:30.719Z,12.73
2023-01-06T13:58:35.439Z,13.27
2023-01-06T14:01:07.681Z,13.93
2023-01-06T14:03:35.477Z,15.01
2023-01-06T14:06:04.084Z,15.53
2023-01-06T14:08:36.507Z,15.91
2023-01-06T14:11:06.744Z,16.46
2023-01-06T14:13:41.441Z,16.48
2023-01-06T14:16:14.521Z,17.28
2023-01-06T14:18:45.630Z,17.42
2023-01-06T14:21:13.220Z,17.44
2023-01-06T14:23:50.904Z,17.89
2023-01-06T14:26:17.562Z,17.80
2023-01-06T14:28:44.178Z,17.36
2023-01-06T14:31:25.967Z,17.47
2023-01-06T14:33:57.445Z,16.66
2023-01-06T14:36:26.059Z,17.59
2023-01-06T14:39:01.131Z,16.77
2023-01-06T14:41:48.148Z,17.05
2023-01-06T14:44:18.476Z,16.78
2023-01-06T14:47:02.041Z,15.87
2023-01-06T14:49:44.531Z,15.46
2023-01-06T14:52:18.239Z,15.00
2023-01-06T14:54:47.469Z,14.63
2023-01-06T14:57:29.361Z,15.43
2023-01-06T15:00:12.282Z,15.06
2023-01-06T15:02:45.582Z,14.54
2023-01-06T15:05:30.412Z,13.91
2023-01-06T15:07:58.024Z,13.17
2023-01-06T15:10:26.947Z,12.55
2023-01-06T15:12:57.103Z,12.17
2023-01-06T15:15:30.771Z,11.84
2023-01-06T15:17:59.937Z,11.16
2023-01-06T15:20:39.308Z,10.64
2023-01-06T15:23:06.663Z,10.78
2023-01-06T15:25:37.770Z,10.77
2023-01-06T15:28:04.483Z,10.40
2023-01-06T15:30:34.925Z,10.16
2023-01-06T15:33:02.994Z,9.94
2023-01-06T15:35:31.736Z,9.62
2023-01-06T15:38:04.909Z,9.33
2023-01-06T15:40:32.302Z,9.39
2023-01-06T15:42:59.071Z,9.38
2023-01-06T15:45:32.353Z,9.31
2023-01-06T15:48:02.989Z,9.27
2023-01-06T15:50:31.891Z,9.13
2023-01-06T15:53:04.034Z,9.05
2023-01-06T15:55:34.533Z,8.87
2023-01-06T15:58:04.602Z,8.90
2023-01-06T16:00:41.679Z,8.81
2023-01-06T16:03:18.902Z,8.84
2023-01-06T16:05:50.433Z,8.73
2023-01-06T16:08:25.902Z,8.70
2023-01-06T16:11:46.938Z,8.49
2023-01-06T16:14:28.882Z,8.45
2023-01-06T16:17:10.778Z,8.44
2023-01-06T16:19:45.330Z,8.44
2023-01-06T16:22:26.410Z,8.31
2023-01-06T16:24:53.591Z,8.29
2023-01-06T16:27:25.777Z,8.07
2023-01-06T16:30:09.767Z,7.97
2023-01-06T16:32:40.694Z,7.89
2023-01-06T16:35:13.390Z,7.85
2023-01-06T16:37:40.022Z,7.94
2023-01-06T16:40:07.871Z,7.95
2023-01-06T16:42:41.022Z,7.93
2023-01-06T16:45:28.403Z,7.97
2023-01-06T16:47:55.808Z,8.10
2023-01-06T16:50:38.245Z,8.12
2023-01-06T16:53:21.231Z,8.19
2023-01-06T16:55:57.563Z,8.12
2023-01-06T16:58:26.589Z,7.98
2023-01-06T17:00:54.678Z,7.91
2023-01-06T17:03:24.341Z,7.95
2023-01-06T17:05:52.245Z,7.94
2023-01-06T17:08:27.600Z,7.91
2023-01-06T17:10:54.378Z,8.01
2023-01-06T17:13:36.547Z,7.93
2023-01-06T17:16:26.845Z,7.89
2023-01-06T17:18:56.308Z,7.89
2023-01-06T17:21:28.192Z,7.89
2023-01-06T17:24:02.511Z,7.89
2023-01-06T17:26:29.764Z,7.87
2023-01-06T17:28:58.259Z,7.78
2023-01-06T17:31:35.504Z,7.70
2023-01-06T17:34:12.355Z,7.69
2023-01-06T17:36:41.503Z,7.62
2023-01-06T17:39:25.722Z,7.57
2023-01-06T17:42:01.872Z,7.53
2023-01-06T17:44:35.978Z,7.56
2023-01-06T17:47:11.407Z,7.67
2023-01-06T17:49:38.061Z,7.79
2023-01-06T17:52:14.671Z,7.67
2023-01-06T17:54:56.681Z,7.55
2023-01-06T17:57:27.118Z,7.41
2023-01-06T17:59:57.578Z,7.34
2023-01-06T18:02:42.132Z,7.41
2023-01-06T18:05:30.595Z,7.30
2023-01-06T18:08:06.823Z,7.34
2023-01-06T18:10:35.977Z,7.32
2023-01-06T18:13:29.241Z,7.29
2023-01-06T18:15:58.818Z,7.25
2023-01-06T18:18:33.266Z,6.99
2023-01-06T18:21:29.516Z,6.85
2023-01-06T18:23:56.356Z,6.84
2023-01-06T18:26:37.726Z,6.72
2023-01-06T18:29:22.665Z,6.75
2023-01-06T18:31:51.227Z,6.66
2023-01-06T18:34:26.742Z,6.65
2023-01-06T18:36:55.814Z,6.72
2023-01-06T18:39:37.750Z,6.61
2023-01-06T18:42:19.557Z,6.55
2023-01-06T18:44:46.857Z,6.52
2023-01-06T18:47:20.072Z,6.49
2023-01-06T18:49:47.584Z,6.49
2023-01-06T18:52:36.802Z,6.53
2023-01-06T18:55:15.246Z,6.47
2023-01-06T18:57:45.894Z,6.51
2023-01-06T19:00:30.946Z,6.58
2023-01-06T19:03:14.495Z,6.41
2023-01-06T19:05:42.197Z,6.36
2023-01-06T19:08:21.714Z,6.37
2023-01-06T19:10:49.886Z,6.39
2023-01-06T19:13:24.579Z,6.41
2023-01-06T19:15:51.348Z,6.36
2023-01-06T19:18:19.791Z,6.28
2023-01-06T19:20:47.368Z,6.39
2023-01-06T19:23:18.556Z,6.44
2023-01-06T19:25:50.410Z,6.31
2023-01-06T19:28:22.057Z,6.24
2023-01-06T19:30:50.772Z,6.23
2023-01-06T19:33:35.427Z,6.20
2023-01-06T19:36:27.801Z,6.20
2023-01-06T19:38:54.668Z,6.21
2023-01-06T19:41:29.947Z,6.25
2023-01-06T19:44:08.229Z,6.03
2023-01-06T19:46:38.766Z,5.91
2023-01-06T19:49:20.801Z,5.81
2023-01-06T19:51:49.757Z,5.77
2023-01-06T19:54:25.192Z,5.81
2023-01-06T19:56:52.999Z,5.81
2023-01-06T19:59:29.316Z,5.89
2023-01-06T20:01:58.986Z,5.88
2023-01-06T20:04:27.137Z,5.91
2023-01-06T20:06:54.194Z,5.79
2023-01-06T20:09:21.949Z,5.71
2023-01-06T20:11:50.545Z,5.72
2023-01-06T20:14:18.219Z,5.73
2023-01-06T20:16:45.571Z,5.77
2023-01-06T20:19:13.202Z,5.75
2023-01-06T20:21:40.304Z,5.76
2023-01-06T20:24:08.054Z,5.77
2023-01-06T20:26:34.805Z,5.80
2023-01-06T20:29:02.445Z,5.77
2023-01-06T20:31:29.096Z,5.75
2023-01-06T20:33:55.834Z,5.73
2023-01-06T20:36:22.784Z,5.69
2023-01-06T20:38:49.430Z,5.68
2023-01-06T20:41:16.169Z,5.62
2023-01-06T20:43:42.798Z,5.47
2023-01-06T20:46:09.451Z,5.49
2023-01-06T20:48:36.228Z,5.45
2023-01-06T20:51:02.843Z,5.41
2023-01-06T20:53:29.417Z,5.34
2023-01-06T20:55:56.048Z,5.26
2023-01-06T20:58:22.674Z,5.27
2023-01-06T21:00:49.409Z,5.28
2023-01-06T21:03:16.310Z,5.25
2023-01-06T21:05:42.958Z,5.22
2023-01-06T21:08:09.566Z,5.13
2023-01-06T21:10:37.325Z,5.07
2023-01-06T21:13:04.182Z,5.01
2023-01-06T21:15:30.810Z,4.93
2023-01-06T21:17:57.431Z,4.84
2023-01-06T21:20:24.175Z,4.80
2023-01-06T21:23:03.779Z,4.65
2023-01-06T21:25:44.057Z,4.57
2023-01-06T21:28:30.762Z,4.64
2023-01-06T21:31:35.743Z,4.61
2023-01-06T21:34:42.788Z,4.61
2023-01-06T21:37:49.765Z,4.64
2023-01-06T21:40:49.886Z,4.59
2023-01-06T21:43:56.744Z,4.62
2023-01-06T21:47:04.775Z,4.63
2023-01-06T21:49:41.878Z,4.62
2023-01-06T21:52:10.941Z,4.58
2023-01-06T21:54:37.625Z,4.53
2023-01-06T21:57:04.620Z,4.45
2023-01-06T21:59:35.479Z,4.40
2023-01-06T22:02:06.064Z,4.26
2023-01-06T22:04:33.685Z,4.26
2023-01-06T22:07:04.180Z,4.30
2023-01-06T22:09:31.713Z,4.27
2023-01-06T22:12:00.312Z,4.29
2023-01-06T22:14:27.066Z,4.30
2023-01-06T22:16:54.775Z,4.30
2023-01-06T22:19:21.618Z,4.32
2023-01-06T22:21:48.244Z,4.32
2023-01-06T22:24:17.457Z,4.33
2023-01-06T22:26:44.058Z,4.27
2023-01-06T22:29:11.102Z,4.25
2023-01-06T22:31:37.698Z,4.21
2023-01-06T22:34:06.621Z,4.29
2023-01-06T22:36:33.241Z,4.32
2023-01-06T22:38:59.834Z,4.34
2023-01-06T22:41:26.490Z,4.34
2023-01-06T22:43:53.222Z,4.40
2023-01-06T22:46:20.506Z,4.40
2023-01-06T22:48:47.234Z,4.39
2023-01-06T22:51:14.028Z,4.34
2023-01-06T22:53:40.782Z,4.32
2023-01-06T22:56:09.953Z,4.37
2023-01-06T22:58:38.808Z,4.39
2023-01-06T23:01:06.871Z,4.43
2023-01-06T23:03:34.455Z,4.45
2023-01-06T23:06:07.769Z,4.47
2023-01-06T23:08:38.861Z,4.48
2023-01-06T23:11:10.255Z,4.54
2023-01-06T23:13:38.478Z,4.56
2023-01-06T23:16:08.574Z,4.58
2023-01-06T23:18:37.157Z,4.60
2023-01-06T23:21:06.828Z,4.60
2023-01-06T23:23:34.774Z,4.55
2023-01-06T23:26:03.620Z,4.62
2023-01-06T23:28:30.631Z,4.63
2023-01-06T23:31:02.462Z,4.66
2023-01-06T23:33:29.552Z,4.67
2023-01-06T23:36:00.433Z,4.71
2023-01-06T23:38:27.485Z,4.73
2023-01-06T23:40:59.962Z,4.75
2023-01-06T23:43:26.995Z,4.75
2023-01-06T23:45:59.978Z,4.72
2023-01-06T23:48:28.088Z,4.75
2023-01-06T23:50:54.710Z,4.77
2023-01-06T23:53:21.546Z,4.79
2023-01-06T23:55:58.631Z,4.82
2023-01-06T23:58:27.759Z,4.85
